N174K KDCU-KARR
Flight info
| Callsign | N174K |
|---|---|
| Flight time | N/A |
| Altitude | 8500 |
| Route | NORTH DEPARTURE / PATTERN |
| Aircraft | C172/L-V/N |
Departure
| Time | 2026-05-07 23:36 |
|---|---|
| Airport | Pryor Field Regional Airport (KDCU) |
Arrival
| Time | N/A |
|---|---|
| Airport | Aurora Municipal Airport (KARR) |
| Time | Latitude | Longitude | Altitude | Speed | Heading |
|---|---|---|---|---|---|
| 2026-05-07 23:21 | 34.65770 | -86.94645 | 590 ft | 24 kts | 179° |
| 2026-05-07 23:21 | 34.65698 | -86.94657 | 590 ft | 0 kts | 182° |
| 2026-05-07 23:25 | 34.65691 | -86.94658 | 590 ft | 5 kts | 191° |
| 2026-05-07 23:25 | 34.65664 | -86.94692 | 590 ft | 2 kts | 266° |
| 2026-05-07 23:25 | 34.65654 | -86.94693 | 590 ft | 3 kts | 99° |
| 2026-05-07 23:26 | 34.65658 | -86.94688 | 590 ft | 0 kts | 21° |
| 2026-05-07 23:30 | 34.65658 | -86.94687 | 590 ft | 0 kts | 50° |
| 2026-05-07 23:30 | 34.65659 | -86.94684 | 590 ft | 3 kts | 81° |
| 2026-05-07 23:31 | 34.65603 | -86.94661 | 590 ft | 19 kts | 179° |
| 2026-05-07 23:31 | 34.65454 | -86.94665 | 589 ft | 25 kts | 181° |
| 2026-05-07 23:31 | 34.65269 | -86.94671 | 589 ft | 29 kts | 176° |
| 2026-05-07 23:31 | 34.65078 | -86.94661 | 589 ft | 22 kts | 172° |
| 2026-05-07 23:32 | 34.64953 | -86.94684 | 588 ft | 16 kts | 161° |
| 2026-05-07 23:32 | 34.64834 | -86.94677 | 588 ft | 19 kts | 180° |
| 2026-05-07 23:32 | 34.64672 | -86.94680 | 588 ft | 25 kts | 180° |
| 2026-05-07 23:32 | 34.64581 | -86.94647 | 587 ft | 9 kts | 98° |
| 2026-05-07 23:33 | 34.64581 | -86.94641 | 587 ft | 0 kts | 95° |
| 2026-05-07 23:33 | 34.64580 | -86.94594 | 588 ft | 12 kts | 83° |
| 2026-05-07 23:34 | 34.64631 | -86.94557 | 589 ft | 8 kts | 1° |
| 2026-05-07 23:34 | 34.64674 | -86.94555 | 589 ft | 5 kts | 1° |
| 2026-05-07 23:34 | 34.64746 | -86.94554 | 589 ft | 22 kts | 360° |
| 2026-05-07 23:34 | 34.65056 | -86.94543 | 590 ft | 65 kts | 1° |
| 2026-05-07 23:35 | 34.65615 | -86.94533 | 588 ft | 94 kts | 1° |
| 2026-05-07 23:35 | 34.66318 | -86.94505 | 666 ft | 102 kts | 7° |
| 2026-05-07 23:35 | 34.67001 | -86.94405 | 878 ft | 97 kts | 5° |
| 2026-05-07 23:35 | 34.67682 | -86.94314 | 1089 ft | 100 kts | 5° |
| 2026-05-07 23:36 | 34.68300 | -86.94651 | 1222 ft | 102 kts | 320° |
| 2026-05-07 23:36 | 34.68835 | -86.95194 | 1430 ft | 99 kts | 323° |
| 2026-05-07 23:36 | 34.69420 | -86.95650 | 1557 ft | 103 kts | 333° |
| 2026-05-07 23:36 | 34.70103 | -86.96065 | 1545 ft | 114 kts | 336° |
| 2026-05-07 23:37 | 34.70836 | -86.96475 | 1587 ft | 117 kts | 334° |
| 2026-05-07 23:37 | 34.71514 | -86.97011 | 1565 ft | 122 kts | 316° |
| 2026-05-07 23:37 | 34.72028 | -86.97834 | 1630 ft | 117 kts | 311° |
| 2026-05-07 23:37 | 34.72554 | -86.98555 | 1727 ft | 117 kts | 317° |
| 2026-05-07 23:38 | 34.73236 | -86.99026 | 1832 ft | 112 kts | 345° |
| 2026-05-07 23:38 | 34.74049 | -86.99155 | 1816 ft | 120 kts | 353° |
| 2026-05-07 23:38 | 34.74863 | -86.99245 | 1844 ft | 118 kts | 354° |
| 2026-05-07 23:38 | 34.75682 | -86.99326 | 1862 ft | 118 kts | 354° |
| 2026-05-07 23:39 | 34.76506 | -86.99411 | 1860 ft | 120 kts | 354° |
| 2026-05-07 23:39 | 34.77331 | -86.99504 | 1864 ft | 118 kts | 353° |
| 2026-05-07 23:39 | 34.78147 | -86.99600 | 1915 ft | 118 kts | 353° |
| 2026-05-07 23:39 | 34.78956 | -86.99700 | 1965 ft | 117 kts | 353° |
| 2026-05-07 23:40 | 34.79767 | -86.99803 | 2016 ft | 117 kts | 352° |
| 2026-05-07 23:40 | 34.80578 | -86.99910 | 2082 ft | 118 kts | 353° |
| 2026-05-07 23:40 | 34.81390 | -87.00024 | 2126 ft | 118 kts | 352° |
| 2026-05-07 23:40 | 34.82203 | -87.00142 | 2200 ft | 117 kts | 352° |
| 2026-05-07 23:41 | 34.83016 | -87.00265 | 2257 ft | 118 kts | 352° |
| 2026-05-07 23:41 | 34.83830 | -87.00394 | 2276 ft | 118 kts | 351° |
| 2026-05-07 23:41 | 34.84646 | -87.00533 | 2303 ft | 119 kts | 352° |
| 2026-05-07 23:41 | 34.85464 | -87.00623 | 2322 ft | 118 kts | 353° |
| 2026-05-07 23:42 | 34.86177 | -87.01077 | 2334 ft | 116 kts | 324° |
| 2026-05-07 23:42 | 34.86824 | -87.01651 | 2421 ft | 114 kts | 325° |
| 2026-05-07 23:42 | 34.87467 | -87.02225 | 2490 ft | 115 kts | 324° |
| 2026-05-07 23:42 | 34.88105 | -87.02797 | 2571 ft | 115 kts | 324° |
| 2026-05-07 23:43 | 34.88754 | -87.03369 | 2648 ft | 115 kts | 325° |
| 2026-05-07 23:43 | 34.89397 | -87.03937 | 2720 ft | 114 kts | 324° |
| 2026-05-07 23:43 | 34.90041 | -87.04499 | 2795 ft | 113 kts | 325° |
| 2026-05-07 23:43 | 34.90680 | -87.05053 | 2867 ft | 112 kts | 325° |
| 2026-05-07 23:44 | 34.91306 | -87.05604 | 2947 ft | 112 kts | 325° |
| 2026-05-07 23:44 | 34.91939 | -87.06143 | 3016 ft | 111 kts | 325° |
| 2026-05-07 23:44 | 34.92558 | -87.06682 | 3092 ft | 109 kts | 325° |
| 2026-05-07 23:44 | 34.93180 | -87.07235 | 3141 ft | 113 kts | 324° |
| 2026-05-07 23:45 | 34.93851 | -87.07812 | 3077 ft | 122 kts | 325° |
| 2026-05-07 23:45 | 34.94554 | -87.08412 | 3013 ft | 125 kts | 325° |
| 2026-05-07 23:45 | 34.95246 | -87.09015 | 3116 ft | 117 kts | 324° |
| 2026-05-07 23:45 | 34.95875 | -87.09562 | 3298 ft | 107 kts | 324° |
| 2026-05-07 23:46 | 34.96391 | -87.10017 | 3730 ft | 74 kts | 324° |
| 2026-05-07 23:46 | 34.96785 | -87.10380 | 3927 ft | 77 kts | 324° |
| 2026-05-07 23:46 | 34.97231 | -87.10775 | 4075 ft | 83 kts | 324° |
| 2026-05-07 23:46 | 34.97715 | -87.11196 | 4234 ft | 87 kts | 327° |
| 2026-05-07 23:47 | 34.98209 | -87.11639 | 4397 ft | 89 kts | 324° |
| 2026-05-07 23:47 | 34.98717 | -87.12094 | 4558 ft | 92 kts | 325° |
| 2026-05-07 23:47 | 34.99122 | -87.12697 | 4718 ft | 93 kts | 303° |
| 2026-05-07 23:47 | 34.99470 | -87.13355 | 4871 ft | 91 kts | 306° |
| 2026-05-07 23:48 | 34.99818 | -87.13990 | 5017 ft | 89 kts | 306° |
| 2026-05-07 23:48 | 35.00178 | -87.14617 | 5171 ft | 90 kts | 307° |
| 2026-05-07 23:48 | 35.00538 | -87.15244 | 5318 ft | 90 kts | 306° |
| 2026-05-07 23:48 | 35.00896 | -87.15861 | 5471 ft | 89 kts | 306° |
| 2026-05-07 23:49 | 35.01254 | -87.16477 | 5620 ft | 89 kts | 306° |
| 2026-05-07 23:49 | 35.01614 | -87.17096 | 5773 ft | 89 kts | 307° |
| 2026-05-07 23:49 | 35.01971 | -87.17700 | 5929 ft | 89 kts | 307° |
| 2026-05-07 23:49 | 35.02330 | -87.18306 | 6076 ft | 87 kts | 307° |
| 2026-05-07 23:50 | 35.02682 | -87.18902 | 6229 ft | 85 kts | 307° |
| 2026-05-07 23:50 | 35.03031 | -87.19490 | 6381 ft | 85 kts | 307° |
| 2026-05-07 23:50 | 35.03379 | -87.20076 | 6524 ft | 85 kts | 308° |
| 2026-05-07 23:50 | 35.03909 | -87.20299 | 6680 ft | 87 kts | 357° |
| 2026-05-07 23:51 | 35.04510 | -87.20357 | 6826 ft | 87 kts | 347° |
| 2026-05-07 23:51 | 35.05107 | -87.20452 | 6983 ft | 86 kts | 346° |
| 2026-05-07 23:51 | 35.05499 | -87.20512 | 7065 ft | 85 kts | 346° |
| 2026-05-07 23:51 | 35.06083 | -87.20592 | 7214 ft | 85 kts | 346° |
| 2026-05-07 23:52 | 35.06674 | -87.20626 | 7358 ft | 85 kts | 351° |
| 2026-05-07 23:52 | 35.07267 | -87.20634 | 7493 ft | 86 kts | 350° |
| 2026-05-07 23:52 | 35.07908 | -87.20643 | 7509 ft | 97 kts | 351° |
| 2026-05-07 23:52 | 35.08611 | -87.20663 | 7512 ft | 105 kts | 351° |
| 2026-05-07 23:53 | 35.09358 | -87.20694 | 7510 ft | 109 kts | 351° |
| 2026-05-07 23:53 | 35.10131 | -87.20729 | 7509 ft | 113 kts | 351° |
| 2026-05-07 23:53 | 35.10927 | -87.20758 | 7511 ft | 115 kts | 353° |
| 2026-05-07 23:53 | 35.11732 | -87.20747 | 7508 ft | 117 kts | 354° |
| 2026-05-07 23:54 | 35.12499 | -87.20723 | 7501 ft | 102 kts | 355° |
| 2026-05-07 23:54 | 35.13188 | -87.20691 | 7495 ft | 96 kts | 354° |
| 2026-05-07 23:54 | 35.13860 | -87.20661 | 7495 ft | 97 kts | 354° |
| 2026-05-07 23:54 | 35.14547 | -87.20633 | 7492 ft | 100 kts | 354° |
| 2026-05-07 23:55 | 35.15241 | -87.20608 | 7492 ft | 100 kts | 354° |
| 2026-05-07 23:55 | 35.15936 | -87.20581 | 7493 ft | 100 kts | 354° |
| 2026-05-07 23:55 | 35.16624 | -87.20555 | 7495 ft | 100 kts | 354° |
| 2026-05-07 23:55 | 35.17299 | -87.20534 | 7494 ft | 99 kts | 354° |
| 2026-05-07 23:56 | 35.18020 | -87.20511 | 7491 ft | 100 kts | 354° |
| 2026-05-07 23:56 | 35.18723 | -87.20489 | 7498 ft | 100 kts | 354° |
| 2026-05-07 23:56 | 35.19396 | -87.20466 | 7497 ft | 100 kts | 354° |
| 2026-05-07 23:56 | 35.20137 | -87.20446 | 7496 ft | 100 kts | 354° |
| 2026-05-07 23:57 | 35.20784 | -87.20428 | 7498 ft | 100 kts | 354° |
| 2026-05-07 23:57 | 35.21481 | -87.20407 | 7497 ft | 101 kts | 354° |
| 2026-05-07 23:57 | 35.22179 | -87.20390 | 7495 ft | 100 kts | 354° |
| 2026-05-07 23:57 | 35.22877 | -87.20374 | 7498 ft | 100 kts | 354° |
| 2026-05-07 23:58 | 35.23573 | -87.20353 | 7498 ft | 100 kts | 354° |
| 2026-05-07 23:58 | 35.24273 | -87.20331 | 7503 ft | 101 kts | 354° |
| 2026-05-07 23:58 | 35.24980 | -87.20314 | 7502 ft | 101 kts | 354° |
| 2026-05-07 23:58 | 35.25675 | -87.20301 | 7500 ft | 101 kts | 354° |
| 2026-05-07 23:59 | 35.26375 | -87.20286 | 7505 ft | 101 kts | 354° |
| 2026-05-07 23:59 | 35.27074 | -87.20275 | 7501 ft | 100 kts | 354° |
| 2026-05-07 23:59 | 35.27771 | -87.20267 | 7502 ft | 100 kts | 354° |
| 2026-05-07 23:59 | 35.28504 | -87.20252 | 7505 ft | 101 kts | 354° |
| 2026-05-08 00:00 | 35.29176 | -87.20240 | 7507 ft | 102 kts | 354° |
| 2026-05-08 00:00 | 35.29885 | -87.20231 | 7506 ft | 102 kts | 354° |
| 2026-05-08 00:00 | 35.30595 | -87.20217 | 7506 ft | 101 kts | 354° |
| 2026-05-08 00:00 | 35.31338 | -87.20204 | 7506 ft | 101 kts | 354° |
| 2026-05-08 00:01 | 35.31998 | -87.20191 | 7501 ft | 101 kts | 354° |
| 2026-05-08 00:01 | 35.32700 | -87.20175 | 7504 ft | 102 kts | 354° |
| 2026-05-08 00:01 | 35.33412 | -87.20163 | 7506 ft | 102 kts | 354° |
| 2026-05-08 00:01 | 35.34201 | -87.20151 | 7499 ft | 102 kts | 354° |
| 2026-05-08 00:02 | 35.34827 | -87.20070 | 7502 ft | 104 kts | 1° |
| 2026-05-08 00:02 | 35.35545 | -87.19942 | 7505 ft | 104 kts | 1° |
| 2026-05-08 00:02 | 35.36264 | -87.19819 | 7500 ft | 104 kts | 1° |
| 2026-05-08 00:02 | 35.36972 | -87.19699 | 7500 ft | 102 kts | 1° |
| 2026-05-08 00:03 | 35.37673 | -87.19580 | 7496 ft | 101 kts | 1° |
| 2026-05-08 00:03 | 35.38373 | -87.19460 | 7491 ft | 102 kts | 1° |
| 2026-05-08 00:03 | 35.38879 | -87.19372 | 7493 ft | 101 kts | 1° |
| 2026-05-08 00:04 | 35.39068 | -87.19339 | 7491 ft | 101 kts | 1° |
| 2026-05-08 00:04 | 35.39795 | -87.19218 | 7492 ft | 102 kts | 1° |
| 2026-05-08 00:04 | 35.40470 | -87.19108 | 7493 ft | 102 kts | 1° |
| 2026-05-08 00:04 | 35.41179 | -87.18989 | 7493 ft | 102 kts | 1° |
| 2026-05-08 00:05 | 35.41883 | -87.18871 | 7491 ft | 102 kts | 1° |
| 2026-05-08 00:05 | 35.42589 | -87.18751 | 7495 ft | 102 kts | 1° |
| 2026-05-08 00:05 | 35.43280 | -87.18636 | 7491 ft | 102 kts | 1° |
| 2026-05-08 00:05 | 35.44007 | -87.18514 | 7490 ft | 101 kts | 1° |
| 2026-05-08 00:06 | 35.44672 | -87.18401 | 7495 ft | 102 kts | 1° |
| 2026-05-08 00:06 | 35.45376 | -87.18284 | 7495 ft | 102 kts | 1° |
| 2026-05-08 00:06 | 35.46018 | -87.18177 | 7497 ft | 103 kts | 1° |
| 2026-05-08 00:06 | 35.46529 | -87.18093 | 7493 ft | 102 kts | 1° |
| 2026-05-08 00:07 | 35.46833 | -87.18042 | 7494 ft | 102 kts | 1° |
| 2026-05-08 00:07 | 35.47421 | -87.17948 | 7491 ft | 102 kts | 1° |
| 2026-05-08 00:07 | 35.48125 | -87.17834 | 7493 ft | 102 kts | 1° |
| 2026-05-08 00:07 | 35.48832 | -87.17719 | 7496 ft | 103 kts | 1° |
| 2026-05-08 00:08 | 35.49543 | -87.17602 | 7496 ft | 103 kts | 1° |
| 2026-05-08 00:08 | 35.50256 | -87.17489 | 7497 ft | 103 kts | 1° |
| 2026-05-08 00:08 | 35.50963 | -87.17374 | 7495 ft | 102 kts | 1° |
| 2026-05-08 00:08 | 35.51664 | -87.17257 | 7494 ft | 100 kts | 1° |
| 2026-05-08 00:09 | 35.52351 | -87.17147 | 7493 ft | 102 kts | 1° |